sensor_id;sensor_type;location;lat;lon;timestamp;temperature;humidity
16974;DHT22;8603;46.944;7.412;2022-12-07T00:01:09;0.80;99.90
16974;DHT22;8603;46.944;7.412;2022-12-07T00:03:36;0.70;99.90
16974;DHT22;8603;46.944;7.412;2022-12-07T00:06:03;0.70;99.90
16974;DHT22;8603;46.944;7.412;2022-12-07T00:08:31;0.70;99.90
16974;DHT22;8603;46.944;7.412;2022-12-07T00:11:01;0.70;99.90
16974;DHT22;8603;46.944;7.412;2022-12-07T00:13:27;0.70;99.90
16974;DHT22;8603;46.944;7.412;2022-12-07T00:15:53;0.70;99.90
16974;DHT22;8603;46.944;7.412;2022-12-07T00:18:18;0.70;99.90
16974;DHT22;8603;46.944;7.412;2022-12-07T00:20:44;0.70;99.90
16974;DHT22;8603;46.944;7.412;2022-12-07T00:23:09;0.70;99.90
16974;DHT22;8603;46.944;7.412;2022-12-07T00:25:35;0.70;99.90
16974;DHT22;8603;46.944;7.412;2022-12-07T00:28:00;0.70;99.90
16974;DHT22;8603;46.944;7.412;2022-12-07T00:30:26;0.70;99.90
16974;DHT22;8603;46.944;7.412;2022-12-07T00:32:52;0.70;99.90
16974;DHT22;8603;46.944;7.412;2022-12-07T00:35:17;0.70;99.90
16974;DHT22;8603;46.944;7.412;2022-12-07T00:37:43;0.70;99.90
16974;DHT22;8603;46.944;7.412;2022-12-07T00:40:09;0.70;99.90
16974;DHT22;8603;46.944;7.412;2022-12-07T00:42:34;0.70;99.90
16974;DHT22;8603;46.944;7.412;2022-12-07T00:45:00;0.70;99.90
16974;DHT22;8603;46.944;7.412;2022-12-07T00:47:26;0.60;99.90
16974;DHT22;8603;46.944;7.412;2022-12-07T00:49:51;0.60;99.90
16974;DHT22;8603;46.944;7.412;2022-12-07T00:52:17;0.70;99.90
16974;DHT22;8603;46.944;7.412;2022-12-07T00:54:42;0.70;99.90
16974;DHT22;8603;46.944;7.412;2022-12-07T00:57:08;0.70;99.90
16974;DHT22;8603;46.944;7.412;2022-12-07T00:59:34;0.70;99.90
16974;DHT22;8603;46.944;7.412;2022-12-07T01:01:59;0.70;99.90
16974;DHT22;8603;46.944;7.412;2022-12-07T01:04:25;0.70;99.90
16974;DHT22;8603;46.944;7.412;2022-12-07T01:06:50;0.70;99.90
16974;DHT22;8603;46.944;7.412;2022-12-07T01:09:16;0.80;99.90
16974;DHT22;8603;46.944;7.412;2022-12-07T01:11:41;0.70;99.90
16974;DHT22;8603;46.944;7.412;2022-12-07T01:14:08;0.70;99.90
16974;DHT22;8603;46.944;7.412;2022-12-07T01:16:34;0.80;99.90
16974;DHT22;8603;46.944;7.412;2022-12-07T01:19:00;0.80;99.90
16974;DHT22;8603;46.944;7.412;2022-12-07T01:21:29;0.80;99.90
16974;DHT22;8603;46.944;7.412;2022-12-07T01:23:57;0.80;99.90
16974;DHT22;8603;46.944;7.412;2022-12-07T01:26:24;0.80;99.90
16974;DHT22;8603;46.944;7.412;2022-12-07T01:28:50;0.80;99.90
16974;DHT22;8603;46.944;7.412;2022-12-07T01:31:19;0.90;99.90
16974;DHT22;8603;46.944;7.412;2022-12-07T01:33:47;0.80;99.90
16974;DHT22;8603;46.944;7.412;2022-12-07T01:38:45;0.90;99.90
16974;DHT22;8603;46.944;7.412;2022-12-07T01:41:11;0.90;99.90
16974;DHT22;8603;46.944;7.412;2022-12-07T01:44:06;0.90;99.90
16974;DHT22;8603;46.944;7.412;2022-12-07T01:46:32;0.90;99.90
16974;DHT22;8603;46.944;7.412;2022-12-07T01:48:58;0.90;99.90
16974;DHT22;8603;46.944;7.412;2022-12-07T01:51:25;0.90;99.90
16974;DHT22;8603;46.944;7.412;2022-12-07T01:53:51;0.90;99.90
16974;DHT22;8603;46.944;7.412;2022-12-07T01:56:20;0.90;99.90
16974;DHT22;8603;46.944;7.412;2022-12-07T01:58:47;0.90;99.90
16974;DHT22;8603;46.944;7.412;2022-12-07T02:01:13;0.90;99.90
16974;DHT22;8603;46.944;7.412;2022-12-07T02:03:41;0.80;99.90
16974;DHT22;8603;46.944;7.412;2022-12-07T02:06:08;0.80;99.90
16974;DHT22;8603;46.944;7.412;2022-12-07T02:08:35;0.80;99.90
16974;DHT22;8603;46.944;7.412;2022-12-07T02:11:03;0.70;99.90
16974;DHT22;8603;46.944;7.412;2022-12-07T02:13:31;0.80;99.90
16974;DHT22;8603;46.944;7.412;2022-12-07T02:25:02;0.70;99.90
16974;DHT22;8603;46.944;7.412;2022-12-07T02:30:19;0.70;99.90
16974;DHT22;8603;46.944;7.412;2022-12-07T02:33:00;0.70;99.90
16974;DHT22;8603;46.944;7.412;2022-12-07T02:36:05;0.70;99.90
16974;DHT22;8603;46.944;7.412;2022-12-07T02:41:22;0.60;99.90
16974;DHT22;8603;46.944;7.412;2022-12-07T02:43:53;0.50;99.90
16974;DHT22;8603;46.944;7.412;2022-12-07T02:46:44;0.60;99.90
16974;DHT22;8603;46.944;7.412;2022-12-07T02:49:12;0.60;99.90
16974;DHT22;8603;46.944;7.412;2022-12-07T02:51:43;0.60;99.90
16974;DHT22;8603;46.944;7.412;2022-12-07T02:54:18;0.60;99.90
16974;DHT22;8603;46.944;7.412;2022-12-07T03:02:49;0.60;99.90
16974;DHT22;8603;46.944;7.412;2022-12-07T03:05:44;0.60;99.90
16974;DHT22;8603;46.944;7.412;2022-12-07T03:11:06;0.60;99.90
16974;DHT22;8603;46.944;7.412;2022-12-07T03:14:00;0.60;99.90
16974;DHT22;8603;46.944;7.412;2022-12-07T03:17:35;0.60;99.90
16974;DHT22;8603;46.944;7.412;2022-12-07T03:19:58;0.60;99.90
16974;DHT22;8603;46.944;7.412;2022-12-07T03:22:25;0.60;99.90
16974;DHT22;8603;46.944;7.412;2022-12-07T03:24:57;0.70;99.90
16974;DHT22;8603;46.944;7.412;2022-12-07T03:27:27;0.70;99.90
16974;DHT22;8603;46.944;7.412;2022-12-07T03:30:03;0.70;99.90
16974;DHT22;8603;46.944;7.412;2022-12-07T03:32:34;0.70;99.90
16974;DHT22;8603;46.944;7.412;2022-12-07T03:35:54;0.70;99.90
16974;DHT22;8603;46.944;7.412;2022-12-07T03:38:17;0.70;99.90
16974;DHT22;8603;46.944;7.412;2022-12-07T03:40:45;0.80;99.90
16974;DHT22;8603;46.944;7.412;2022-12-07T03:43:16;0.80;99.90
16974;DHT22;8603;46.944;7.412;2022-12-07T03:45:45;0.70;99.90
16974;DHT22;8603;46.944;7.412;2022-12-07T03:48:40;0.70;99.90
16974;DHT22;8603;46.944;7.412;2022-12-07T03:51:33;0.80;99.90
16974;DHT22;8603;46.944;7.412;2022-12-07T03:54:05;0.70;99.90
16974;DHT22;8603;46.944;7.412;2022-12-07T03:56:34;0.70;99.90
16974;DHT22;8603;46.944;7.412;2022-12-07T03:59:00;0.70;99.90
16974;DHT22;8603;46.944;7.412;2022-12-07T04:01:25;0.70;99.90
16974;DHT22;8603;46.944;7.412;2022-12-07T04:03:52;0.70;99.90
16974;DHT22;8603;46.944;7.412;2022-12-07T04:06:18;0.70;99.90
16974;DHT22;8603;46.944;7.412;2022-12-07T04:08:44;0.70;99.90
16974;DHT22;8603;46.944;7.412;2022-12-07T04:11:09;0.70;99.90
16974;DHT22;8603;46.944;7.412;2022-12-07T04:13:35;0.70;99.90
16974;DHT22;8603;46.944;7.412;2022-12-07T04:16:20;0.80;99.90
16974;DHT22;8603;46.944;7.412;2022-12-07T04:18:46;0.80;99.90
16974;DHT22;8603;46.944;7.412;2022-12-07T04:21:12;0.80;99.90
16974;DHT22;8603;46.944;7.412;2022-12-07T04:23:37;0.80;99.90
16974;DHT22;8603;46.944;7.412;2022-12-07T04:26:03;0.80;99.90
16974;DHT22;8603;46.944;7.412;2022-12-07T04:28:28;0.80;99.90
16974;DHT22;8603;46.944;7.412;2022-12-07T04:30:54;0.90;99.90
16974;DHT22;8603;46.944;7.412;2022-12-07T04:33:19;0.90;99.90
16974;DHT22;8603;46.944;7.412;2022-12-07T04:35:45;0.90;99.90
16974;DHT22;8603;46.944;7.412;2022-12-07T04:38:10;0.90;99.90
16974;DHT22;8603;46.944;7.412;2022-12-07T04:40:37;0.90;99.90
16974;DHT22;8603;46.944;7.412;2022-12-07T04:43:02;0.90;99.90
16974;DHT22;8603;46.944;7.412;2022-12-07T04:45:28;0.90;99.90
16974;DHT22;8603;46.944;7.412;2022-12-07T04:47:53;0.90;99.90
16974;DHT22;8603;46.944;7.412;2022-12-07T04:50:19;0.90;99.90
16974;DHT22;8603;46.944;7.412;2022-12-07T04:52:45;0.90;99.90
16974;DHT22;8603;46.944;7.412;2022-12-07T04:55:13;0.90;99.90
16974;DHT22;8603;46.944;7.412;2022-12-07T04:57:39;0.90;99.90
16974;DHT22;8603;46.944;7.412;2022-12-07T05:00:05;0.90;99.90
16974;DHT22;8603;46.944;7.412;2022-12-07T05:02:31;0.90;99.90
16974;DHT22;8603;46.944;7.412;2022-12-07T05:04:56;0.90;99.90
16974;DHT22;8603;46.944;7.412;2022-12-07T05:07:22;0.90;99.90
16974;DHT22;8603;46.944;7.412;2022-12-07T05:09:47;0.80;99.90
16974;DHT22;8603;46.944;7.412;2022-12-07T05:12:16;0.90;99.90
16974;DHT22;8603;46.944;7.412;2022-12-07T05:14:41;0.90;99.90
16974;DHT22;8603;46.944;7.412;2022-12-07T05:17:07;0.90;99.90
16974;DHT22;8603;46.944;7.412;2022-12-07T05:19:32;0.90;99.90
16974;DHT22;8603;46.944;7.412;2022-12-07T05:21:58;0.90;99.90
16974;DHT22;8603;46.944;7.412;2022-12-07T05:24:23;0.90;99.90
16974;DHT22;8603;46.944;7.412;2022-12-07T05:26:49;0.80;99.90
16974;DHT22;8603;46.944;7.412;2022-12-07T05:29:16;0.80;99.90
16974;DHT22;8603;46.944;7.412;2022-12-07T05:31:42;0.80;99.90
16974;DHT22;8603;46.944;7.412;2022-12-07T05:34:09;0.80;99.90
16974;DHT22;8603;46.944;7.412;2022-12-07T05:36:35;0.90;99.90
16974;DHT22;8603;46.944;7.412;2022-12-07T05:39:00;0.80;99.90
16974;DHT22;8603;46.944;7.412;2022-12-07T05:41:26;0.70;99.90
16974;DHT22;8603;46.944;7.412;2022-12-07T05:44:10;0.80;99.90
16974;DHT22;8603;46.944;7.412;2022-12-07T05:46:35;0.80;99.90
16974;DHT22;8603;46.944;7.412;2022-12-07T05:49:01;0.80;99.90
16974;DHT22;8603;46.944;7.412;2022-12-07T05:51:27;0.80;99.90
16974;DHT22;8603;46.944;7.412;2022-12-07T05:53:53;0.80;99.90
16974;DHT22;8603;46.944;7.412;2022-12-07T05:56:45;0.90;99.90
16974;DHT22;8603;46.944;7.412;2022-12-07T05:59:11;0.90;99.90
16974;DHT22;8603;46.944;7.412;2022-12-07T06:02:00;0.90;99.90
16974;DHT22;8603;46.944;7.412;2022-12-07T06:04:30;0.90;99.90
16974;DHT22;8603;46.944;7.412;2022-12-07T06:06:55;0.90;99.90
16974;DHT22;8603;46.944;7.412;2022-12-07T06:09:22;0.90;99.90
16974;DHT22;8603;46.944;7.412;2022-12-07T06:12:27;0.90;99.90
16974;DHT22;8603;46.944;7.412;2022-12-07T06:14:59;0.90;99.90
16974;DHT22;8603;46.944;7.412;2022-12-07T06:24:16;0.90;99.90
16974;DHT22;8603;46.944;7.412;2022-12-07T06:26:43;0.90;99.90
16974;DHT22;8603;46.944;7.412;2022-12-07T06:29:09;0.90;99.90
16974;DHT22;8603;46.944;7.412;2022-12-07T06:31:35;0.90;99.90
16974;DHT22;8603;46.944;7.412;2022-12-07T06:34:06;0.90;99.90
16974;DHT22;8603;46.944;7.412;2022-12-07T06:36:33;0.90;99.90
16974;DHT22;8603;46.944;7.412;2022-12-07T06:38:58;0.90;99.90
16974;DHT22;8603;46.944;7.412;2022-12-07T06:41:24;0.80;99.90
16974;DHT22;8603;46.944;7.412;2022-12-07T06:43:50;0.80;99.90
16974;DHT22;8603;46.944;7.412;2022-12-07T06:46:16;0.80;99.90
16974;DHT22;8603;46.944;7.412;2022-12-07T06:48:42;0.90;99.90
16974;DHT22;8603;46.944;7.412;2022-12-07T06:51:08;0.90;99.90
16974;DHT22;8603;46.944;7.412;2022-12-07T06:53:35;1.00;99.90
16974;DHT22;8603;46.944;7.412;2022-12-07T06:56:00;0.90;99.90
16974;DHT22;8603;46.944;7.412;2022-12-07T06:58:26;0.90;99.90
16974;DHT22;8603;46.944;7.412;2022-12-07T07:00:52;1.00;99.90
16974;DHT22;8603;46.944;7.412;2022-12-07T07:03:18;1.00;99.90
16974;DHT22;8603;46.944;7.412;2022-12-07T07:05:44;1.00;99.90
16974;DHT22;8603;46.944;7.412;2022-12-07T07:08:10;1.00;99.90
16974;DHT22;8603;46.944;7.412;2022-12-07T07:10:36;0.90;99.90
16974;DHT22;8603;46.944;7.412;2022-12-07T07:13:03;1.00;99.90
16974;DHT22;8603;46.944;7.412;2022-12-07T07:15:29;1.00;99.90
16974;DHT22;8603;46.944;7.412;2022-12-07T07:17:54;1.00;99.90
16974;DHT22;8603;46.944;7.412;2022-12-07T07:20:20;0.90;99.90
16974;DHT22;8603;46.944;7.412;2022-12-07T07:22:46;0.90;99.90
16974;DHT22;8603;46.944;7.412;2022-12-07T07:25:11;0.90;99.90
16974;DHT22;8603;46.944;7.412;2022-12-07T07:27:37;0.90;99.90
16974;DHT22;8603;46.944;7.412;2022-12-07T07:30:04;0.90;99.90
16974;DHT22;8603;46.944;7.412;2022-12-07T07:32:30;0.90;99.90
16974;DHT22;8603;46.944;7.412;2022-12-07T07:34:55;1.00;99.90
16974;DHT22;8603;46.944;7.412;2022-12-07T07:37:21;1.00;99.90
16974;DHT22;8603;46.944;7.412;2022-12-07T07:39:46;1.00;99.90
16974;DHT22;8603;46.944;7.412;2022-12-07T07:42:12;1.10;99.90
16974;DHT22;8603;46.944;7.412;2022-12-07T07:44:38;1.10;99.90
16974;DHT22;8603;46.944;7.412;2022-12-07T07:47:03;1.10;99.90
16974;DHT22;8603;46.944;7.412;2022-12-07T07:49:29;1.10;99.90
16974;DHT22;8603;46.944;7.412;2022-12-07T07:51:55;1.10;99.90
16974;DHT22;8603;46.944;7.412;2022-12-07T07:54:20;1.10;99.90
16974;DHT22;8603;46.944;7.412;2022-12-07T07:56:46;1.10;99.90
16974;DHT22;8603;46.944;7.412;2022-12-07T07:59:12;1.10;99.90
16974;DHT22;8603;46.944;7.412;2022-12-07T08:01:37;1.10;99.90
16974;DHT22;8603;46.944;7.412;2022-12-07T08:04:03;1.10;99.90
16974;DHT22;8603;46.944;7.412;2022-12-07T08:06:28;1.10;99.90
16974;DHT22;8603;46.944;7.412;2022-12-07T08:08:57;1.20;99.90
16974;DHT22;8603;46.944;7.412;2022-12-07T08:11:23;1.20;99.90
16974;DHT22;8603;46.944;7.412;2022-12-07T08:13:58;1.20;99.90
16974;DHT22;8603;46.944;7.412;2022-12-07T08:16:23;1.20;99.90
16974;DHT22;8603;46.944;7.412;2022-12-07T08:18:49;1.30;99.90
16974;DHT22;8603;46.944;7.412;2022-12-07T08:21:15;1.30;99.90
16974;DHT22;8603;46.944;7.412;2022-12-07T08:23:41;1.40;99.90
16974;DHT22;8603;46.944;7.412;2022-12-07T08:26:09;1.40;99.90
16974;DHT22;8603;46.944;7.412;2022-12-07T08:28:35;1.40;99.90
16974;DHT22;8603;46.944;7.412;2022-12-07T08:31:07;1.40;99.90
16974;DHT22;8603;46.944;7.412;2022-12-07T08:33:37;1.40;99.90
16974;DHT22;8603;46.944;7.412;2022-12-07T08:36:18;1.50;99.90
16974;DHT22;8603;46.944;7.412;2022-12-07T08:38:46;1.50;99.90
16974;DHT22;8603;46.944;7.412;2022-12-07T08:41:15;1.60;99.90
16974;DHT22;8603;46.944;7.412;2022-12-07T08:43:41;1.60;99.90
16974;DHT22;8603;46.944;7.412;2022-12-07T08:46:18;1.50;99.90
16974;DHT22;8603;46.944;7.412;2022-12-07T08:51:35;1.60;99.90
16974;DHT22;8603;46.944;7.412;2022-12-07T08:54:04;1.50;99.90
16974;DHT22;8603;46.944;7.412;2022-12-07T08:56:30;1.60;99.90
16974;DHT22;8603;46.944;7.412;2022-12-07T08:58:57;1.60;99.90
16974;DHT22;8603;46.944;7.412;2022-12-07T09:01:23;1.60;99.90
16974;DHT22;8603;46.944;7.412;2022-12-07T09:03:48;1.70;99.90
16974;DHT22;8603;46.944;7.412;2022-12-07T09:06:14;1.70;99.90
16974;DHT22;8603;46.944;7.412;2022-12-07T09:08:42;1.70;99.90
16974;DHT22;8603;46.944;7.412;2022-12-07T09:11:09;1.80;99.90
16974;DHT22;8603;46.944;7.412;2022-12-07T09:13:35;1.80;99.90
16974;DHT22;8603;46.944;7.412;2022-12-07T09:16:00;1.90;99.90
16974;DHT22;8603;46.944;7.412;2022-12-07T09:18:26;2.00;99.90
16974;DHT22;8603;46.944;7.412;2022-12-07T09:20:52;2.10;99.90
16974;DHT22;8603;46.944;7.412;2022-12-07T09:23:17;2.10;99.90
16974;DHT22;8603;46.944;7.412;2022-12-07T09:25:43;2.10;99.90
16974;DHT22;8603;46.944;7.412;2022-12-07T09:28:08;2.20;99.90
16974;DHT22;8603;46.944;7.412;2022-12-07T09:30:34;2.20;99.90
16974;DHT22;8603;46.944;7.412;2022-12-07T09:33:00;2.30;99.90
16974;DHT22;8603;46.944;7.412;2022-12-07T09:35:26;2.30;99.90
16974;DHT22;8603;46.944;7.412;2022-12-07T09:37:52;2.30;99.90
16974;DHT22;8603;46.944;7.412;2022-12-07T09:40:19;2.30;99.90
16974;DHT22;8603;46.944;7.412;2022-12-07T09:42:48;2.40;99.90
16974;DHT22;8603;46.944;7.412;2022-12-07T09:45:24;2.30;99.90
16974;DHT22;8603;46.944;7.412;2022-12-07T09:47:50;2.40;99.90
16974;DHT22;8603;46.944;7.412;2022-12-07T09:50:20;2.30;99.90
16974;DHT22;8603;46.944;7.412;2022-12-07T09:52:47;2.30;99.90
16974;DHT22;8603;46.944;7.412;2022-12-07T09:55:16;2.40;99.90
16974;DHT22;8603;46.944;7.412;2022-12-07T09:57:46;2.40;99.90
16974;DHT22;8603;46.944;7.412;2022-12-07T10:00:16;2.40;99.90
16974;DHT22;8603;46.944;7.412;2022-12-07T10:02:44;2.40;99.90
16974;DHT22;8603;46.944;7.412;2022-12-07T10:05:15;2.40;99.90
16974;DHT22;8603;46.944;7.412;2022-12-07T10:07:44;2.40;99.90
16974;DHT22;8603;46.944;7.412;2022-12-07T10:10:15;2.40;99.90
16974;DHT22;8603;46.944;7.412;2022-12-07T10:13:05;2.40;99.90
16974;DHT22;8603;46.944;7.412;2022-12-07T10:21:13;2.60;99.90
16974;DHT22;8603;46.944;7.412;2022-12-07T10:26:29;2.60;99.90
16974;DHT22;8603;46.944;7.412;2022-12-07T10:29:02;2.50;99.90
16974;DHT22;8603;46.944;7.412;2022-12-07T10:31:29;2.50;99.90
16974;DHT22;8603;46.944;7.412;2022-12-07T10:33:59;2.60;99.90
16974;DHT22;8603;46.944;7.412;2022-12-07T10:36:37;2.50;99.90
16974;DHT22;8603;46.944;7.412;2022-12-07T10:39:17;2.60;99.90
16974;DHT22;8603;46.944;7.412;2022-12-07T10:41:55;2.60;99.90
16974;DHT22;8603;46.944;7.412;2022-12-07T10:44:26;2.70;99.90
16974;DHT22;8603;46.944;7.412;2022-12-07T10:47:14;2.70;99.90
16974;DHT22;8603;46.944;7.412;2022-12-07T10:58:43;3.10;99.90
16974;DHT22;8603;46.944;7.412;2022-12-07T11:00:58;3.20;99.90
16974;DHT22;8603;46.944;7.412;2022-12-07T11:03:37;3.00;99.90
16974;DHT22;8603;46.944;7.412;2022-12-07T11:06:14;2.90;99.90
16974;DHT22;8603;46.944;7.412;2022-12-07T11:09:03;2.90;99.90
16974;DHT22;8603;46.944;7.412;2022-12-07T11:11:41;3.00;99.90
16974;DHT22;8603;46.944;7.412;2022-12-07T11:14:18;3.10;99.90
16974;DHT22;8603;46.944;7.412;2022-12-07T11:19:24;3.10;99.90
16974;DHT22;8603;46.944;7.412;2022-12-07T11:22:13;3.00;99.90
16974;DHT22;8603;46.944;7.412;2022-12-07T11:24:57;3.00;99.90
16974;DHT22;8603;46.944;7.412;2022-12-07T11:27:51;3.10;99.90
16974;DHT22;8603;46.944;7.412;2022-12-07T11:33:46;3.30;99.90
16974;DHT22;8603;46.944;7.412;2022-12-07T11:38:53;3.60;99.90
16974;DHT22;8603;46.944;7.412;2022-12-07T11:41:28;3.80;99.90
16974;DHT22;8603;46.944;7.412;2022-12-07T11:46:50;3.90;99.90
16974;DHT22;8603;46.944;7.412;2022-12-07T11:49:27;4.00;99.90
16974;DHT22;8603;46.944;7.412;2022-12-07T11:52:04;4.00;99.90
16974;DHT22;8603;46.944;7.412;2022-12-07T11:54:36;4.00;99.90
16974;DHT22;8603;46.944;7.412;2022-12-07T11:57:12;4.00;99.90
16974;DHT22;8603;46.944;7.412;2022-12-07T11:59:45;4.00;99.90
16974;DHT22;8603;46.944;7.412;2022-12-07T12:02:41;3.90;99.90
16974;DHT22;8603;46.944;7.412;2022-12-07T12:05:21;3.70;99.90
16974;DHT22;8603;46.944;7.412;2022-12-07T12:07:54;3.80;99.90
16974;DHT22;8603;46.944;7.412;2022-12-07T12:10:36;3.90;99.90
16974;DHT22;8603;46.944;7.412;2022-12-07T12:21:14;4.00;99.90
16974;DHT22;8603;46.944;7.412;2022-12-07T12:23:48;4.00;99.90
16974;DHT22;8603;46.944;7.412;2022-12-07T12:26:23;4.00;99.90
16974;DHT22;8603;46.944;7.412;2022-12-07T12:34:29;4.10;99.90
16974;DHT22;8603;46.944;7.412;2022-12-07T12:36:47;4.00;99.90
16974;DHT22;8603;46.944;7.412;2022-12-07T14:19:05;3.70;99.90
16974;DHT22;8603;46.944;7.412;2022-12-07T14:21:45;3.70;99.90
16974;DHT22;8603;46.944;7.412;2022-12-07T14:24:18;3.60;99.90
16974;DHT22;8603;46.944;7.412;2022-12-07T14:26:59;3.60;99.90
16974;DHT22;8603;46.944;7.412;2022-12-07T15:08:21;3.30;99.90
16974;DHT22;8603;46.944;7.412;2022-12-07T15:11:02;3.30;99.90
16974;DHT22;8603;46.944;7.412;2022-12-07T15:13:28;3.30;99.90
16974;DHT22;8603;46.944;7.412;2022-12-07T15:16:14;3.20;99.90
16974;DHT22;8603;46.944;7.412;2022-12-07T15:29:03;3.00;99.90
16974;DHT22;8603;46.944;7.412;2022-12-07T15:31:29;3.00;99.90
16974;DHT22;8603;46.944;7.412;2022-12-07T15:33:55;3.00;99.90
16974;DHT22;8603;46.944;7.412;2022-12-07T15:36:25;3.00;99.90
16974;DHT22;8603;46.944;7.412;2022-12-07T15:38:51;3.00;99.90
16974;DHT22;8603;46.944;7.412;2022-12-07T15:41:17;3.00;99.90
16974;DHT22;8603;46.944;7.412;2022-12-07T15:43:43;2.90;99.90
16974;DHT22;8603;46.944;7.412;2022-12-07T15:46:33;2.90;99.90
16974;DHT22;8603;46.944;7.412;2022-12-07T15:48:59;2.90;99.90
16974;DHT22;8603;46.944;7.412;2022-12-07T15:51:25;2.90;99.90
16974;DHT22;8603;46.944;7.412;2022-12-07T15:53:51;2.90;99.90
16974;DHT22;8603;46.944;7.412;2022-12-07T15:56:17;2.90;99.90
16974;DHT22;8603;46.944;7.412;2022-12-07T15:58:43;2.90;99.90
16974;DHT22;8603;46.944;7.412;2022-12-07T16:01:13;2.90;99.90
16974;DHT22;8603;46.944;7.412;2022-12-07T16:03:39;2.90;99.90
16974;DHT22;8603;46.944;7.412;2022-12-07T16:06:06;2.90;99.90
16974;DHT22;8603;46.944;7.412;2022-12-07T16:08:40;2.90;99.90
16974;DHT22;8603;46.944;7.412;2022-12-07T16:11:07;3.00;99.90
16974;DHT22;8603;46.944;7.412;2022-12-07T16:13:33;2.90;99.90
16974;DHT22;8603;46.944;7.412;2022-12-07T16:16:03;2.90;99.90
16974;DHT22;8603;46.944;7.412;2022-12-07T16:18:29;2.90;99.90
16974;DHT22;8603;46.944;7.412;2022-12-07T16:20:54;2.90;99.90
16974;DHT22;8603;46.944;7.412;2022-12-07T16:23:20;2.90;99.90
16974;DHT22;8603;46.944;7.412;2022-12-07T16:25:46;2.90;99.90
16974;DHT22;8603;46.944;7.412;2022-12-07T16:28:11;2.90;99.90
16974;DHT22;8603;46.944;7.412;2022-12-07T16:30:37;2.90;99.90
16974;DHT22;8603;46.944;7.412;2022-12-07T16:33:03;2.90;99.90
16974;DHT22;8603;46.944;7.412;2022-12-07T16:35:28;2.90;99.90
16974;DHT22;8603;46.944;7.412;2022-12-07T16:37:54;2.90;99.90
16974;DHT22;8603;46.944;7.412;2022-12-07T16:40:20;2.90;99.90
16974;DHT22;8603;46.944;7.412;2022-12-07T16:42:45;2.90;99.90
16974;DHT22;8603;46.944;7.412;2022-12-07T16:45:11;2.90;99.90
16974;DHT22;8603;46.944;7.412;2022-12-07T16:47:38;2.90;99.90
16974;DHT22;8603;46.944;7.412;2022-12-07T16:54:01;2.90;99.90
16974;DHT22;8603;46.944;7.412;2022-12-07T17:16:32;2.90;99.90
16974;DHT22;8603;46.944;7.412;2022-12-07T17:21:34;2.90;99.90
16974;DHT22;8603;46.944;7.412;2022-12-07T17:24:00;2.90;99.90
16974;DHT22;8603;46.944;7.412;2022-12-07T17:26:27;2.90;99.90
16974;DHT22;8603;46.944;7.412;2022-12-07T17:29:03;2.80;99.90
16974;DHT22;8603;46.944;7.412;2022-12-07T17:31:51;2.80;99.90
16974;DHT22;8603;46.944;7.412;2022-12-07T17:43:01;2.80;99.90
16974;DHT22;8603;46.944;7.412;2022-12-07T17:45:26;2.80;99.90
16974;DHT22;8603;46.944;7.412;2022-12-07T17:48:16;2.80;99.90
16974;DHT22;8603;46.944;7.412;2022-12-07T17:51:05;2.80;99.90
16974;DHT22;8603;46.944;7.412;2022-12-07T17:56:31;2.80;99.90
16974;DHT22;8603;46.944;7.412;2022-12-07T17:58:58;2.80;99.90
16974;DHT22;8603;46.944;7.412;2022-12-07T18:01:24;2.80;99.90
16974;DHT22;8603;46.944;7.412;2022-12-07T18:04:00;2.80;99.90
16974;DHT22;8603;46.944;7.412;2022-12-07T18:06:36;2.90;99.90
16974;DHT22;8603;46.944;7.412;2022-12-07T18:09:15;2.90;99.90
16974;DHT22;8603;46.944;7.412;2022-12-07T18:11:43;2.90;99.90
16974;DHT22;8603;46.944;7.412;2022-12-07T18:14:09;2.80;99.90
16974;DHT22;8603;46.944;7.412;2022-12-07T18:16:35;2.90;99.90
16974;DHT22;8603;46.944;7.412;2022-12-07T18:19:06;2.90;99.90
16974;DHT22;8603;46.944;7.412;2022-12-07T18:21:33;2.80;99.90
16974;DHT22;8603;46.944;7.412;2022-12-07T18:24:03;2.80;99.90
16974;DHT22;8603;46.944;7.412;2022-12-07T18:26:31;2.80;99.90
16974;DHT22;8603;46.944;7.412;2022-12-07T18:29:16;2.80;99.90
16974;DHT22;8603;46.944;7.412;2022-12-07T18:31:48;2.80;99.90
16974;DHT22;8603;46.944;7.412;2022-12-07T18:34:17;2.80;99.90
16974;DHT22;8603;46.944;7.412;2022-12-07T18:36:48;2.70;99.90
16974;DHT22;8603;46.944;7.412;2022-12-07T18:39:26;2.70;99.90
16974;DHT22;8603;46.944;7.412;2022-12-07T18:41:52;2.70;99.90
16974;DHT22;8603;46.944;7.412;2022-12-07T18:44:18;2.70;99.90
16974;DHT22;8603;46.944;7.412;2022-12-07T18:46:46;2.70;99.90
16974;DHT22;8603;46.944;7.412;2022-12-07T18:49:13;2.70;99.90
16974;DHT22;8603;46.944;7.412;2022-12-07T18:51:39;2.70;99.90
16974;DHT22;8603;46.944;7.412;2022-12-07T18:54:05;2.70;99.90
16974;DHT22;8603;46.944;7.412;2022-12-07T18:56:31;2.70;99.90
16974;DHT22;8603;46.944;7.412;2022-12-07T19:13:41;2.70;99.90
16974;DHT22;8603;46.944;7.412;2022-12-07T19:19:50;2.70;99.90
16974;DHT22;8603;46.944;7.412;2022-12-07T19:22:44;2.70;99.90
16974;DHT22;8603;46.944;7.412;2022-12-07T19:25:45;2.70;99.90
16974;DHT22;8603;46.944;7.412;2022-12-07T19:29:07;2.70;99.90
16974;DHT22;8603;46.944;7.412;2022-12-07T20:04:56;2.70;99.90
16974;DHT22;8603;46.944;7.412;2022-12-07T20:28:13;2.70;99.90
16974;DHT22;8603;46.944;7.412;2022-12-07T20:38:07;2.70;99.90
16974;DHT22;8603;46.944;7.412;2022-12-07T20:40:58;2.70;99.90
16974;DHT22;8603;46.944;7.412;2022-12-07T20:47:15;2.70;99.90
16974;DHT22;8603;46.944;7.412;2022-12-07T20:49:47;2.70;99.90
16974;DHT22;8603;46.944;7.412;2022-12-07T20:52:17;2.70;99.90
16974;DHT22;8603;46.944;7.412;2022-12-07T20:54:50;2.70;99.90
16974;DHT22;8603;46.944;7.412;2022-12-07T20:57:20;2.70;99.90
16974;DHT22;8603;46.944;7.412;2022-12-07T21:00:04;2.70;99.90
16974;DHT22;8603;46.944;7.412;2022-12-07T21:24:34;2.60;99.90
16974;DHT22;8603;46.944;7.412;2022-12-07T21:39:21;2.70;99.90
16974;DHT22;8603;46.944;7.412;2022-12-07T21:45:22;2.70;99.90
16974;DHT22;8603;46.944;7.412;2022-12-07T21:48:06;2.70;99.90
16974;DHT22;8603;46.944;7.412;2022-12-07T21:50:43;2.70;99.90
16974;DHT22;8603;46.944;7.412;2022-12-07T21:53:19;2.60;99.90
16974;DHT22;8603;46.944;7.412;2022-12-07T21:56:22;2.60;99.90
16974;DHT22;8603;46.944;7.412;2022-12-07T21:59:03;2.60;99.90
16974;DHT22;8603;46.944;7.412;2022-12-07T22:01:34;2.60;99.90
16974;DHT22;8603;46.944;7.412;2022-12-07T22:04:04;2.60;99.90
16974;DHT22;8603;46.944;7.412;2022-12-07T22:06:34;2.60;99.90
16974;DHT22;8603;46.944;7.412;2022-12-07T22:09:08;2.50;99.90
16974;DHT22;8603;46.944;7.412;2022-12-07T22:11:50;2.50;99.90
16974;DHT22;8603;46.944;7.412;2022-12-07T22:14:17;2.50;99.90
16974;DHT22;8603;46.944;7.412;2022-12-07T22:17:01;2.50;99.90
16974;DHT22;8603;46.944;7.412;2022-12-07T22:19:30;2.50;99.90
16974;DHT22;8603;46.944;7.412;2022-12-07T22:22:01;2.60;99.90
16974;DHT22;8603;46.944;7.412;2022-12-07T22:24:31;2.60;99.90
16974;DHT22;8603;46.944;7.412;2022-12-07T22:26:58;2.60;99.90
16974;DHT22;8603;46.944;7.412;2022-12-07T22:29:24;2.60;99.90
16974;DHT22;8603;46.944;7.412;2022-12-07T22:31:56;2.60;99.90
16974;DHT22;8603;46.944;7.412;2022-12-07T22:34:24;2.60;99.90
16974;DHT22;8603;46.944;7.412;2022-12-07T22:36:58;2.60;99.90
16974;DHT22;8603;46.944;7.412;2022-12-07T22:39:26;2.60;99.90
16974;DHT22;8603;46.944;7.412;2022-12-07T22:42:12;2.60;99.90
16974;DHT22;8603;46.944;7.412;2022-12-07T22:44:45;2.60;99.90
16974;DHT22;8603;46.944;7.412;2022-12-07T22:47:14;2.60;99.90
16974;DHT22;8603;46.944;7.412;2022-12-07T22:49:46;2.60;99.90